sensor_id;sensor_type;location;lat;lon;timestamp;pressure;altitude;pressure_sealevel;temperature;humidity
64354;BME280;50681;53.334;-6.536;2023-01-25T00:01:03;103020.38;;;7.73;100.00
64354;BME280;50681;53.334;-6.536;2023-01-25T00:03:28;103038.59;;;7.85;100.00
64354;BME280;50681;53.334;-6.536;2023-01-25T00:05:58;103044.78;;;7.92;100.00
64354;BME280;50681;53.334;-6.536;2023-01-25T00:08:25;103046.03;;;7.89;100.00
64354;BME280;50681;53.334;-6.536;2023-01-25T00:10:50;103066.91;;;8.01;100.00
64354;BME280;50681;53.334;-6.536;2023-01-25T00:13:16;103074.53;;;8.04;100.00
64354;BME280;50681;53.334;-6.536;2023-01-25T00:15:41;103034.66;;;7.80;100.00
64354;BME280;50681;53.334;-6.536;2023-01-25T00:18:07;103046.44;;;7.93;100.00
64354;BME280;50681;53.334;-6.536;2023-01-25T00:20:32;103049.13;;;7.93;100.00
64354;BME280;50681;53.334;-6.536;2023-01-25T00:22:58;103055.50;;;7.99;100.00
64354;BME280;50681;53.334;-6.536;2023-01-25T00:25:23;103062.97;;;7.97;100.00
64354;BME280;50681;53.334;-6.536;2023-01-25T00:27:51;103065.88;;;7.95;100.00
64354;BME280;50681;53.334;-6.536;2023-01-25T00:30:19;103039.22;;;7.73;100.00
64354;BME280;50681;53.334;-6.536;2023-01-25T00:33:05;103037.75;;;7.77;100.00
64354;BME280;50681;53.334;-6.536;2023-01-25T00:35:33;103057.00;;;7.88;100.00
64354;BME280;50681;53.334;-6.536;2023-01-25T00:38:01;103061.94;;;7.98;100.00
64354;BME280;50681;53.334;-6.536;2023-01-25T00:40:30;103036.94;;;7.84;100.00
64354;BME280;50681;53.334;-6.536;2023-01-25T00:42:56;103045.00;;;7.84;100.00
64354;BME280;50681;53.334;-6.536;2023-01-25T00:45:24;103040.66;;;7.89;100.00
64354;BME280;50681;53.334;-6.536;2023-01-25T00:47:53;103060.91;;;7.99;100.00
64354;BME280;50681;53.334;-6.536;2023-01-25T00:50:19;103041.88;;;7.87;100.00
64354;BME280;50681;53.334;-6.536;2023-01-25T00:52:45;103060.69;;;8.00;100.00
64354;BME280;50681;53.334;-6.536;2023-01-25T00:55:10;103054.28;;;8.01;100.00
64354;BME280;50681;53.334;-6.536;2023-01-25T00:57:35;103050.13;;;7.99;100.00
64354;BME280;50681;53.334;-6.536;2023-01-25T01:00:01;103047.66;;;7.97;100.00
64354;BME280;50681;53.334;-6.536;2023-01-25T01:02:26;103053.06;;;7.97;100.00
64354;BME280;50681;53.334;-6.536;2023-01-25T01:04:52;103028.66;;;7.78;100.00
64354;BME280;50681;53.334;-6.536;2023-01-25T01:07:17;103033.84;;;7.80;100.00
64354;BME280;50681;53.334;-6.536;2023-01-25T01:09:43;103033.00;;;7.86;100.00
64354;BME280;50681;53.334;-6.536;2023-01-25T01:12:08;103056.97;;;8.01;100.00
64354;BME280;50681;53.334;-6.536;2023-01-25T01:14:34;103049.31;;;7.98;100.00
64354;BME280;50681;53.334;-6.536;2023-01-25T01:16:59;103044.97;;;7.97;100.00
64354;BME280;50681;53.334;-6.536;2023-01-25T01:19:25;103046.00;;;7.96;100.00
64354;BME280;50681;53.334;-6.536;2023-01-25T01:21:50;103032.97;;;7.93;100.00
64354;BME280;50681;53.334;-6.536;2023-01-25T01:24:16;103048.31;;;7.92;100.00
64354;BME280;50681;53.334;-6.536;2023-01-25T01:26:42;103050.13;;;7.99;100.00
64354;BME280;50681;53.334;-6.536;2023-01-25T01:29:07;103039.00;;;7.88;100.00
64354;BME280;50681;53.334;-6.536;2023-01-25T01:31:33;103054.09;;;7.96;100.00
64354;BME280;50681;53.334;-6.536;2023-01-25T01:33:58;103056.78;;;7.96;100.00
64354;BME280;50681;53.334;-6.536;2023-01-25T01:36:27;103055.97;;;7.89;100.00
64354;BME280;50681;53.334;-6.536;2023-01-25T01:38:53;103027.84;;;7.78;100.00
64354;BME280;50681;53.334;-6.536;2023-01-25T01:41:19;103037.97;;;7.83;100.00
64354;BME280;50681;53.334;-6.536;2023-01-25T01:43:45;103061.50;;;8.01;100.00
64354;BME280;50681;53.334;-6.536;2023-01-25T01:48:59;103055.94;;;7.95;100.00
64354;BME280;50681;53.334;-6.536;2023-01-25T01:56:38;102987.94;;;7.55;100.00
64354;BME280;50681;53.334;-6.536;2023-01-25T01:59:05;103031.16;;;7.80;100.00
64354;BME280;50681;53.334;-6.536;2023-01-25T02:01:31;103037.97;;;7.83;100.00
64354;BME280;50681;53.334;-6.536;2023-01-25T02:03:57;103017.72;;;7.80;100.00
64354;BME280;50681;53.334;-6.536;2023-01-25T02:06:35;103039.41;;;7.92;100.00
64354;BME280;50681;53.334;-6.536;2023-01-25T02:09:03;103032.16;;;7.92;100.00
64354;BME280;50681;53.334;-6.536;2023-01-25T02:11:29;103008.41;;;7.69;100.00
64354;BME280;50681;53.334;-6.536;2023-01-25T02:13:58;103013.56;;;7.71;100.00
64354;BME280;50681;53.334;-6.536;2023-01-25T02:16:26;103004.91;;;7.69;100.00
64354;BME280;50681;53.334;-6.536;2023-01-25T02:18:53;103046.22;;;7.88;100.00
64354;BME280;50681;53.334;-6.536;2023-01-25T02:21:21;103036.13;;;7.83;100.00
64354;BME280;50681;53.334;-6.536;2023-01-25T02:23:53;103025.78;;;7.80;100.00
64354;BME280;50681;53.334;-6.536;2023-01-25T02:26:21;103017.09;;;7.71;100.00
64354;BME280;50681;53.334;-6.536;2023-01-25T02:28:49;103031.97;;;7.80;100.00
64354;BME280;50681;53.334;-6.536;2023-01-25T02:31:16;103025.16;;;7.71;100.00
64354;BME280;50681;53.334;-6.536;2023-01-25T02:33:42;103000.97;;;7.58;100.00
64354;BME280;50681;53.334;-6.536;2023-01-25T02:41:30;103028.66;;;7.78;100.00
64354;BME280;50681;53.334;-6.536;2023-01-25T02:43:56;103016.06;;;7.65;100.00
64354;BME280;50681;53.334;-6.536;2023-01-25T02:46:28;103009.66;;;7.67;100.00
64354;BME280;50681;53.334;-6.536;2023-01-25T02:48:56;103025.97;;;7.78;100.00
64354;BME280;50681;53.334;-6.536;2023-01-25T02:51:24;103021.41;;;7.72;100.00
64354;BME280;50681;53.334;-6.536;2023-01-25T02:53:50;103040.25;;;7.92;100.00
64354;BME280;50681;53.334;-6.536;2023-01-25T02:56:16;103015.81;;;7.80;100.00
64354;BME280;50681;53.334;-6.536;2023-01-25T02:58:42;103034.63;;;7.94;100.00
64354;BME280;50681;53.334;-6.536;2023-01-25T03:01:09;103043.31;;;7.96;100.00
64354;BME280;50681;53.334;-6.536;2023-01-25T03:03:34;103033.00;;;7.86;100.00
64354;BME280;50681;53.334;-6.536;2023-01-25T03:05:59;103008.19;;;7.77;100.00
64354;BME280;50681;53.334;-6.536;2023-01-25T03:08:25;103018.72;;;7.86;100.00
64354;BME280;50681;53.334;-6.536;2023-01-25T03:10:50;103007.56;;;7.75;100.00
64354;BME280;50681;53.334;-6.536;2023-01-25T03:13:19;103030.72;;;7.90;100.00
64354;BME280;50681;53.334;-6.536;2023-01-25T03:15:45;103021.63;;;7.84;100.00
64354;BME280;50681;53.334;-6.536;2023-01-25T03:18:10;103010.03;;;7.70;100.00
64354;BME280;50681;53.334;-6.536;2023-01-25T03:20:36;103029.09;;;7.82;100.00
64354;BME280;50681;53.334;-6.536;2023-01-25T03:23:01;103019.97;;;7.83;100.00
64354;BME280;50681;53.334;-6.536;2023-01-25T03:25:26;103036.91;;;7.97;100.00
64354;BME280;50681;53.334;-6.536;2023-01-25T03:27:52;103029.06;;;7.89;100.00
64354;BME280;50681;53.334;-6.536;2023-01-25T03:30:18;103039.59;;;7.97;100.00
64354;BME280;50681;53.334;-6.536;2023-01-25T03:32:43;103037.53;;;7.99;100.00
64354;BME280;50681;53.334;-6.536;2023-01-25T03:35:09;103012.09;;;7.82;100.00
64354;BME280;50681;53.334;-6.536;2023-01-25T03:37:34;103026.56;;;7.94;100.00
64354;BME280;50681;53.334;-6.536;2023-01-25T03:40:00;103013.75;;;7.83;100.00
64354;BME280;50681;53.334;-6.536;2023-01-25T03:42:25;103008.38;;;7.83;100.00
64354;BME280;50681;53.334;-6.536;2023-01-25T03:44:51;103012.72;;;7.84;100.00
64354;BME280;50681;53.334;-6.536;2023-01-25T03:47:16;103016.44;;;7.89;100.00
64354;BME280;50681;53.334;-6.536;2023-01-25T03:49:42;103032.13;;;7.99;100.00
64354;BME280;50681;53.334;-6.536;2023-01-25T03:52:07;103024.50;;;7.96;100.00
64354;BME280;50681;53.334;-6.536;2023-01-25T03:54:33;103002.16;;;7.89;100.00
64354;BME280;50681;53.334;-6.536;2023-01-25T03:56:58;103018.28;;;8.02;100.00
64354;BME280;50681;53.334;-6.536;2023-01-25T03:59:24;103004.41;;;7.99;100.00
64354;BME280;50681;53.334;-6.536;2023-01-25T04:01:50;103015.56;;;8.02;100.00
64354;BME280;50681;53.334;-6.536;2023-01-25T04:04:16;102974.25;;;7.76;100.00
64354;BME280;50681;53.334;-6.536;2023-01-25T04:06:41;102963.09;;;7.66;100.00
64354;BME280;50681;53.334;-6.536;2023-01-25T04:09:07;103012.69;;;7.97;100.00
64354;BME280;50681;53.334;-6.536;2023-01-25T04:11:32;102992.00;;;7.91;100.00
64354;BME280;50681;53.334;-6.536;2023-01-25T04:13:58;103001.75;;;7.85;100.00
64354;BME280;50681;53.334;-6.536;2023-01-25T04:16:23;103016.19;;;7.98;100.00
64354;BME280;50681;53.334;-6.536;2023-01-25T04:18:49;103017.03;;;7.98;100.00
64354;BME280;50681;53.334;-6.536;2023-01-25T04:21:14;103017.22;;;8.03;100.00
64354;BME280;50681;53.334;-6.536;2023-01-25T04:23:40;103010.81;;;7.98;100.00
64354;BME280;50681;53.334;-6.536;2023-01-25T04:26:07;103025.06;;;8.05;100.00
64354;BME280;50681;53.334;-6.536;2023-01-25T04:28:34;103004.22;;;7.87;100.00
64354;BME280;50681;53.334;-6.536;2023-01-25T04:30:59;103002.13;;;7.95;100.00
64354;BME280;50681;53.334;-6.536;2023-01-25T04:33:25;103025.31;;;8.03;100.00
64354;BME280;50681;53.334;-6.536;2023-01-25T04:35:51;103000.06;;;7.98;100.00
64354;BME280;50681;53.334;-6.536;2023-01-25T04:38:17;103008.53;;;8.01;100.00
64354;BME280;50681;53.334;-6.536;2023-01-25T04:40:43;102974.66;;;7.80;100.00
64354;BME280;50681;53.334;-6.536;2023-01-25T04:43:12;103013.09;;;8.07;100.00
64354;BME280;50681;53.334;-6.536;2023-01-25T04:45:38;103005.44;;;7.98;100.00
64354;BME280;50681;53.334;-6.536;2023-01-25T04:48:05;103006.28;;;7.98;100.00
64354;BME280;50681;53.334;-6.536;2023-01-25T04:50:35;103012.88;;;8.02;100.00
64354;BME280;50681;53.334;-6.536;2023-01-25T04:53:01;102999.44;;;8.02;100.00
64354;BME280;50681;53.334;-6.536;2023-01-25T04:55:26;103004.16;;;8.07;100.00
64354;BME280;50681;53.334;-6.536;2023-01-25T04:57:52;102981.47;;;7.83;100.00
64354;BME280;50681;53.334;-6.536;2023-01-25T05:00:18;102992.63;;;7.93;100.00
64354;BME280;50681;53.334;-6.536;2023-01-25T05:02:44;102992.44;;;7.94;100.00
64354;BME280;50681;53.334;-6.536;2023-01-25T05:05:10;102982.50;;;7.82;100.00
64354;BME280;50681;53.334;-6.536;2023-01-25T05:07:35;103006.03;;;8.00;100.00
64354;BME280;50681;53.334;-6.536;2023-01-25T05:10:01;102979.59;;;7.90;100.00
64354;BME280;50681;53.334;-6.536;2023-01-25T05:12:27;102985.38;;;8.00;100.00
64354;BME280;50681;53.334;-6.536;2023-01-25T05:14:52;102975.22;;;7.95;100.00
64354;BME280;50681;53.334;-6.536;2023-01-25T05:17:18;102952.31;;;7.79;100.00
64354;BME280;50681;53.334;-6.536;2023-01-25T05:19:43;102981.03;;;7.99;100.00
64354;BME280;50681;53.334;-6.536;2023-01-25T05:22:16;102979.56;;;8.03;100.00
64354;BME280;50681;53.334;-6.536;2023-01-25T05:24:42;102952.31;;;7.86;100.00
64354;BME280;50681;53.334;-6.536;2023-01-25T05:27:11;102930.59;;;7.81;100.00
64354;BME280;50681;53.334;-6.536;2023-01-25T05:29:38;102932.63;;;7.92;100.00
64354;BME280;50681;53.334;-6.536;2023-01-25T05:32:18;102954.50;;;8.09;100.00
64354;BME280;50681;53.334;-6.536;2023-01-25T05:34:44;102908.44;;;7.86;100.00
64354;BME280;50681;53.334;-6.536;2023-01-25T05:37:12;102938.38;;;8.03;100.00
64354;BME280;50681;53.334;-6.536;2023-01-25T05:39:42;102935.47;;;8.04;100.00
64354;BME280;50681;53.334;-6.536;2023-01-25T05:42:13;102943.72;;;8.09;100.00
64354;BME280;50681;53.334;-6.536;2023-01-25T05:44:39;102914.44;;;7.88;100.00
64354;BME280;50681;53.334;-6.536;2023-01-25T05:47:05;102925.56;;;7.98;100.00
64354;BME280;50681;53.334;-6.536;2023-01-25T05:49:30;102926.63;;;7.90;100.00
64354;BME280;50681;53.334;-6.536;2023-01-25T05:51:56;102916.06;;;7.89;100.00
64354;BME280;50681;53.334;-6.536;2023-01-25T05:54:21;102916.06;;;7.89;100.00
64354;BME280;50681;53.334;-6.536;2023-01-25T05:56:48;102922.06;;;7.91;100.00
64354;BME280;50681;53.334;-6.536;2023-01-25T05:59:14;102903.50;;;7.76;100.00
64354;BME280;50681;53.334;-6.536;2023-01-25T06:01:40;102923.72;;;7.92;100.00
64354;BME280;50681;53.334;-6.536;2023-01-25T06:04:05;102923.91;;;7.97;100.00
64354;BME280;50681;53.334;-6.536;2023-01-25T06:06:31;102911.97;;;7.86;100.00
64354;BME280;50681;53.334;-6.536;2023-01-25T06:08:56;102914.22;;;7.83;100.00
64354;BME280;50681;53.334;-6.536;2023-01-25T06:11:23;102916.53;;;7.79;100.00
64354;BME280;50681;53.334;-6.536;2023-01-25T06:13:48;102940.06;;;7.97;100.00
64354;BME280;50681;53.334;-6.536;2023-01-25T06:16:16;102932.03;;;7.90;100.00
64354;BME280;50681;53.334;-6.536;2023-01-25T06:18:42;102906.19;;;7.76;100.00
64354;BME280;50681;53.334;-6.536;2023-01-25T06:21:07;102929.13;;;7.85;100.00
64354;BME280;50681;53.334;-6.536;2023-01-25T06:23:33;102921.06;;;7.78;100.00
64354;BME280;50681;53.334;-6.536;2023-01-25T06:26:00;102935.94;;;7.88;100.00
64354;BME280;50681;53.334;-6.536;2023-01-25T06:28:29;102949.16;;;7.96;100.00
64354;BME280;50681;53.334;-6.536;2023-01-25T06:30:55;102958.91;;;7.90;100.00
64354;BME280;50681;53.334;-6.536;2023-01-25T06:33:21;102955.97;;;7.99;100.00
64354;BME280;50681;53.334;-6.536;2023-01-25T06:35:46;102944.19;;;7.93;100.00
64354;BME280;50681;53.334;-6.536;2023-01-25T06:38:12;102948.53;;;7.94;100.00
64354;BME280;50681;53.334;-6.536;2023-01-25T06:40:37;102938.22;;;7.91;100.00
64354;BME280;50681;53.334;-6.536;2023-01-25T06:43:10;102910.13;;;7.80;100.00
64354;BME280;50681;53.334;-6.536;2023-01-25T06:45:36;102938.41;;;7.96;100.00
64354;BME280;50681;53.334;-6.536;2023-01-25T06:48:02;102900.81;;;7.76;100.00
64354;BME280;50681;53.334;-6.536;2023-01-25T06:50:29;102939.88;;;7.92;100.00
64354;BME280;50681;53.334;-6.536;2023-01-25T06:52:55;102915.06;;;7.83;100.00
64354;BME280;50681;53.334;-6.536;2023-01-25T06:55:21;102888.41;;;7.75;100.00
64354;BME280;50681;53.334;-6.536;2023-01-25T06:57:47;102919.56;;;7.96;100.00
64354;BME280;50681;53.334;-6.536;2023-01-25T07:00:14;102909.22;;;7.93;100.00
64354;BME280;50681;53.334;-6.536;2023-01-25T07:02:40;102910.28;;;7.92;100.00
64354;BME280;50681;53.334;-6.536;2023-01-25T07:05:06;102889.00;;;7.84;100.00
64354;BME280;50681;53.334;-6.536;2023-01-25T07:07:32;102896.88;;;7.85;100.00
64354;BME280;50681;53.334;-6.536;2023-01-25T07:09:57;102889.59;;;7.92;100.00
64354;BME280;50681;53.334;-6.536;2023-01-25T07:12:29;102866.44;;;7.85;100.00
64354;BME280;50681;53.334;-6.536;2023-01-25T07:14:54;102862.69;;;7.86;100.00
64354;BME280;50681;53.334;-6.536;2023-01-25T07:17:20;102850.53;;;7.76;100.00
64354;BME280;50681;53.334;-6.536;2023-01-25T07:19:45;102834.81;;;7.80;100.00
64354;BME280;50681;53.334;-6.536;2023-01-25T07:22:11;102856.47;;;7.92;100.00
64354;BME280;50681;53.334;-6.536;2023-01-25T07:24:36;102823.81;;;7.82;100.00
64354;BME280;50681;53.334;-6.536;2023-01-25T07:27:02;102821.94;;;7.89;100.00
64354;BME280;50681;53.334;-6.536;2023-01-25T07:29:27;102809.75;;;7.79;100.00
64354;BME280;50681;53.334;-6.536;2023-01-25T07:31:53;102825.47;;;7.83;100.00
64354;BME280;50681;53.334;-6.536;2023-01-25T07:34:18;102834.16;;;7.85;100.00
64354;BME280;50681;53.334;-6.536;2023-01-25T07:36:44;102843.91;;;7.79;100.00
64354;BME280;50681;53.334;-6.536;2023-01-25T07:39:11;102862.06;;;7.90;100.00
64354;BME280;50681;53.334;-6.536;2023-01-25T07:41:37;102863.53;;;7.86;100.00
64354;BME280;50681;53.334;-6.536;2023-01-25T07:44:03;102867.22;;;7.92;100.00
64354;BME280;50681;53.334;-6.536;2023-01-25T07:46:28;102840.38;;;7.78;100.00
64354;BME280;50681;53.334;-6.536;2023-01-25T07:48:54;102842.03;;;7.79;100.00
64354;BME280;50681;53.334;-6.536;2023-01-25T07:51:21;102837.09;;;7.76;100.00
64354;BME280;50681;53.334;-6.536;2023-01-25T07:53:57;102804.25;;;7.61;100.00
64354;BME280;50681;53.334;-6.536;2023-01-25T07:56:29;102787.53;;;7.59;100.00
64354;BME280;50681;53.334;-6.536;2023-01-25T07:58:55;102822.00;;;7.75;100.00
64354;BME280;50681;53.334;-6.536;2023-01-25T08:01:22;102837.94;;;7.77;100.00
64354;BME280;50681;53.334;-6.536;2023-01-25T08:03:48;102840.19;;;7.73;100.00
64354;BME280;50681;53.334;-6.536;2023-01-25T08:06:15;102854.44;;;7.80;100.00
64354;BME280;50681;53.334;-6.536;2023-01-25T08:08:44;102826.00;;;7.59;100.00
64354;BME280;50681;53.334;-6.536;2023-01-25T08:13:41;102818.56;;;7.55;100.00
64354;BME280;50681;53.334;-6.536;2023-01-25T08:16:17;102832.75;;;7.75;100.00
64354;BME280;50681;53.334;-6.536;2023-01-25T08:18:47;102806.75;;;7.56;100.00
64354;BME280;50681;53.334;-6.536;2023-01-25T08:21:13;102833.84;;;7.68;100.00
64354;BME280;50681;53.334;-6.536;2023-01-25T08:23:38;102843.31;;;7.70;100.00
64354;BME280;50681;53.334;-6.536;2023-01-25T08:26:05;102818.56;;;7.55;100.00
64354;BME280;50681;53.334;-6.536;2023-01-25T08:28:31;102846.22;;;7.69;100.00
64354;BME280;50681;53.334;-6.536;2023-01-25T08:31:08;102864.41;;;7.73;100.00
64354;BME280;50681;53.334;-6.536;2023-01-25T08:33:35;102887.34;;;7.83;100.00
64354;BME280;50681;53.334;-6.536;2023-01-25T08:36:01;102848.28;;;7.73;100.00
64354;BME280;50681;53.334;-6.536;2023-01-25T08:38:27;102828.47;;;7.61;100.00
64354;BME280;50681;53.334;-6.536;2023-01-25T08:40:52;102863.13;;;7.89;100.00
64354;BME280;50681;53.334;-6.536;2023-01-25T08:43:18;102853.59;;;7.87;100.00
64354;BME280;50681;53.334;-6.536;2023-01-25T08:45:44;102839.16;;;7.74;100.00
64354;BME280;50681;53.334;-6.536;2023-01-25T08:48:09;102839.41;;;7.73;100.00
64354;BME280;50681;53.334;-6.536;2023-01-25T08:50:44;102845.75;;;7.85;100.00
64354;BME280;50681;53.334;-6.536;2023-01-25T08:53:10;102816.00;;;7.73;100.00
64354;BME280;50681;53.334;-6.536;2023-01-25T08:55:35;102814.47;;;7.91;100.00
64354;BME280;50681;53.334;-6.536;2023-01-25T08:58:01;102771.94;;;7.74;100.00
64354;BME280;50681;53.334;-6.536;2023-01-25T09:00:26;102800.66;;;7.80;100.00
64354;BME280;50681;53.334;-6.536;2023-01-25T09:02:52;102778.59;;;7.65;100.00
64354;BME280;50681;53.334;-6.536;2023-01-25T09:05:17;102783.72;;;7.80;100.00
64354;BME280;50681;53.334;-6.536;2023-01-25T09:07:42;102780.63;;;7.76;100.00
64354;BME280;50681;53.334;-6.536;2023-01-25T09:10:08;102827.13;;;7.84;100.00
64354;BME280;50681;53.334;-6.536;2023-01-25T09:12:34;102823.41;;;7.85;100.00
64354;BME280;50681;53.334;-6.536;2023-01-25T09:15:01;102825.66;;;7.88;100.00
64354;BME280;50681;53.334;-6.536;2023-01-25T09:17:27;102822.34;;;7.92;100.00
64354;BME280;50681;53.334;-6.536;2023-01-25T09:19:53;102798.03;;;7.67;100.00
64354;BME280;50681;53.334;-6.536;2023-01-25T09:22:18;102841.97;;;7.93;100.00
64354;BME280;50681;53.334;-6.536;2023-01-25T09:24:43;102848.22;;;7.87;100.00
64354;BME280;50681;53.334;-6.536;2023-01-25T09:27:09;102866.63;;;7.90;100.00
64354;BME280;50681;53.334;-6.536;2023-01-25T09:29:34;102858.41;;;7.78;100.00
64354;BME280;50681;53.334;-6.536;2023-01-25T09:32:00;102831.34;;;7.66;100.00
64354;BME280;50681;53.334;-6.536;2023-01-25T09:34:25;102866.63;;;7.90;100.00
64354;BME280;50681;53.334;-6.536;2023-01-25T09:36:51;102860.00;;;7.92;100.00
64354;BME280;50681;53.334;-6.536;2023-01-25T09:39:16;102841.78;;;7.88;100.00
64354;BME280;50681;53.334;-6.536;2023-01-25T09:45:07;102817.94;;;7.98;100.00
64354;BME280;50681;53.334;-6.536;2023-01-25T09:47:45;102821.63;;;8.04;100.00
64354;BME280;50681;53.334;-6.536;2023-01-25T09:55:16;102846.69;;;8.04;100.00
64354;BME280;50681;53.334;-6.536;2023-01-25T09:57:44;102828.09;;;7.96;100.00
64354;BME280;50681;53.334;-6.536;2023-01-25T10:00:18;102847.03;;;8.15;100.00
64354;BME280;50681;53.334;-6.536;2023-01-25T10:03:24;102842.72;;;8.07;100.00
64354;BME280;50681;53.334;-6.536;2023-01-25T10:05:55;102831.97;;;8.07;100.00
64354;BME280;50681;53.334;-6.536;2023-01-25T10:08:37;102833.41;;;8.09;100.00
64354;BME280;50681;53.334;-6.536;2023-01-25T10:11:22;102814.94;;;8.13;100.00
64354;BME280;50681;53.334;-6.536;2023-01-25T10:13:49;102802.16;;;8.08;100.00
64354;BME280;50681;53.334;-6.536;2023-01-25T10:18:58;102795.31;;;8.13;100.00
64354;BME280;50681;53.334;-6.536;2023-01-25T10:21:40;102788.56;;;7.97;100.00
64354;BME280;50681;53.334;-6.536;2023-01-25T10:27:29;102778.28;;;7.87;100.00
64354;BME280;50681;53.334;-6.536;2023-01-25T10:30:19;102834.97;;;8.24;100.00
64354;BME280;50681;53.334;-6.536;2023-01-25T10:32:45;102830.41;;;8.24;100.00
64354;BME280;50681;53.334;-6.536;2023-01-25T10:35:16;102850.03;;;8.32;100.00
64354;BME280;50681;53.334;-6.536;2023-01-25T10:37:43;102825.94;;;8.12;100.00
64354;BME280;50681;53.334;-6.536;2023-01-25T10:40:13;102852.97;;;8.30;100.00
64354;BME280;50681;53.334;-6.536;2023-01-25T10:42:47;102869.91;;;8.31;100.00
64354;BME280;50681;53.334;-6.536;2023-01-25T10:45:16;102861.28;;;8.22;100.00
64354;BME280;50681;53.334;-6.536;2023-01-25T10:47:46;102876.94;;;8.32;100.00
64354;BME280;50681;53.334;-6.536;2023-01-25T10:55:58;102858.34;;;8.30;100.00
64354;BME280;50681;53.334;-6.536;2023-01-25T11:00:59;102843.44;;;8.28;100.00
64354;BME280;50681;53.334;-6.536;2023-01-25T11:03:34;102872.94;;;8.48;100.00
64354;BME280;50681;53.334;-6.536;2023-01-25T11:06:01;102867.75;;;8.53;100.00
64354;BME280;50681;53.334;-6.536;2023-01-25T11:10:55;102866.66;;;8.61;100.00
64354;BME280;50681;53.334;-6.536;2023-01-25T11:18:54;102867.31;;;8.81;100.00
64354;BME280;50681;53.334;-6.536;2023-01-25T11:21:25;102846.72;;;8.68;100.00
64354;BME280;50681;53.334;-6.536;2023-01-25T11:26:34;102879.13;;;8.80;100.00
64354;BME280;50681;53.334;-6.536;2023-01-25T11:29:18;102864.72;;;8.68;100.00
64354;BME280;50681;53.334;-6.536;2023-01-25T11:31:50;102851.50;;;8.66;100.00
64354;BME280;50681;53.334;-6.536;2023-01-25T11:34:20;102902.00;;;8.71;100.00
64354;BME280;50681;53.334;-6.536;2023-01-25T11:36:50;102905.72;;;8.70;100.00
64354;BME280;50681;53.334;-6.536;2023-01-25T11:39:28;102865.81;;;8.28;100.00
64354;BME280;50681;53.334;-6.536;2023-01-25T11:50:26;102884.03;;;8.26;100.00
64354;BME280;50681;53.334;-6.536;2023-01-25T11:52:57;102881.13;;;8.28;100.00
64354;BME280;50681;53.334;-6.536;2023-01-25T11:55:30;102873.09;;;8.21;100.00
64354;BME280;50681;53.334;-6.536;2023-01-25T12:06:29;102855.03;;;8.28;100.00
64354;BME280;50681;53.334;-6.536;2023-01-25T12:09:21;102857.91;;;8.33;100.00
64354;BME280;50681;53.334;-6.536;2023-01-25T12:20:27;102878.56;;;8.39;100.00
64354;BME280;50681;53.334;-6.536;2023-01-25T12:28:23;102865.28;;;8.45;100.00
64354;BME280;50681;53.334;-6.536;2023-01-25T12:36:16;102834.13;;;8.30;100.00
64354;BME280;50681;53.334;-6.536;2023-01-25T12:39:09;102863.13;;;8.60;100.00
64354;BME280;50681;53.334;-6.536;2023-01-25T12:44:34;102841.75;;;8.65;100.00
64354;BME280;50681;53.334;-6.536;2023-01-25T12:47:27;102832.91;;;8.58;100.00
64354;BME280;50681;53.334;-6.536;2023-01-25T12:52:51;102835.34;;;8.66;100.00
64354;BME280;50681;53.334;-6.536;2023-01-25T12:55:18;102823.47;;;8.42;100.00
64354;BME280;50681;53.334;-6.536;2023-01-25T13:00:30;102831.63;;;8.61;100.00
64354;BME280;50681;53.334;-6.536;2023-01-25T13:05:52;102809.34;;;8.47;100.00
64354;BME280;50681;53.334;-6.536;2023-01-25T13:11:34;102799.22;;;8.17;100.00
64354;BME280;50681;53.334;-6.536;2023-01-25T13:19:39;102834.81;;;8.12;100.00
64354;BME280;50681;53.334;-6.536;2023-01-25T13:22:09;102839.94;;;8.20;100.00
64354;BME280;50681;53.334;-6.536;2023-01-25T13:27:27;102806.31;;;8.04;100.00
64354;BME280;50681;53.334;-6.536;2023-01-25T13:29:55;102807.09;;;8.12;100.00
64354;BME280;50681;53.334;-6.536;2023-01-25T13:37:22;102827.44;;;8.33;100.00
64354;BME280;50681;53.334;-6.536;2023-01-25T13:42:29;102830.09;;;8.72;100.00
64354;BME280;50681;53.334;-6.536;2023-01-25T13:44:56;102834.66;;;8.96;100.00
64354;BME280;50681;53.334;-6.536;2023-01-25T13:47:25;102824.19;;;9.07;100.00
64354;BME280;50681;53.334;-6.536;2023-01-25T13:50:08;102823.81;;;9.03;100.00
64354;BME280;50681;53.334;-6.536;2023-01-25T13:55:45;102831.59;;;9.11;100.00
64354;BME280;50681;53.334;-6.536;2023-01-25T13:58:28;102816.28;;;8.87;100.00
64354;BME280;50681;53.334;-6.536;2023-01-25T14:03:25;102819.88;;;8.80;100.00
64354;BME280;50681;53.334;-6.536;2023-01-25T14:05:54;102832.25;;;8.88;100.00
64354;BME280;50681;53.334;-6.536;2023-01-25T14:08:20;102821.78;;;8.99;100.00
64354;BME280;50681;53.334;-6.536;2023-01-25T14:10:47;102792.56;;;8.77;100.00
64354;BME280;50681;53.334;-6.536;2023-01-25T14:13:14;102823.03;;;8.96;100.00
64354;BME280;50681;53.334;-6.536;2023-01-25T14:15:53;102824.84;;;9.02;100.00
64354;BME280;50681;53.334;-6.536;2023-01-25T14:18:25;102820.72;;;8.81;100.00
64354;BME280;50681;53.334;-6.536;2023-01-25T14:21:18;102804.38;;;8.76;100.00
64354;BME280;50681;53.334;-6.536;2023-01-25T14:23:44;102822.63;;;8.74;100.00
64354;BME280;50681;53.334;-6.536;2023-01-25T14:26:22;102823.50;;;8.67;100.00
64354;BME280;50681;53.334;-6.536;2023-01-25T14:28:53;102804.22;;;8.71;100.00
64354;BME280;50681;53.334;-6.536;2023-01-25T14:31:25;102815.75;;;8.78;100.00
64354;BME280;50681;53.334;-6.536;2023-01-25T14:33:52;102812.03;;;8.79;100.00
64354;BME280;50681;53.334;-6.536;2023-01-25T14:36:28;102808.28;;;8.80;100.00
64354;BME280;50681;53.334;-6.536;2023-01-25T14:38:55;102830.00;;;8.85;100.00
64354;BME280;50681;53.334;-6.536;2023-01-25T14:41:27;102834.00;;;8.76;100.00
64354;BME280;50681;53.334;-6.536;2023-01-25T14:43:55;102835.78;;;8.63;100.00
64354;BME280;50681;53.334;-6.536;2023-01-25T14:46:30;102838.56;;;8.43;100.00